createdAt,value
2022-08-22T00:00:14.588Z,99097.78
2022-08-22T00:02:57.376Z,99138.53
2022-08-22T00:02:57.486Z,99131.28
2022-08-22T00:03:06.994Z,99111.06
2022-08-22T00:03:26.650Z,99097.00
2022-08-22T00:06:57.554Z,99096.59
2022-08-22T00:10:25.206Z,99100.00
2022-08-22T00:13:41.480Z,99097.47
2022-08-22T00:16:53.603Z,99100.88
2022-08-22T00:20:14.987Z,99109.00
2022-08-22T00:23:27.956Z,99106.78
2022-08-22T00:26:49.080Z,99119.59
2022-08-22T00:30:11.761Z,99118.97
2022-08-22T00:33:24.976Z,99100.19
2022-08-22T00:37:03.996Z,99104.47
2022-08-22T00:40:24.983Z,99106.16
2022-08-22T00:43:52.697Z,99110.91
2022-08-22T00:47:16.688Z,99102.37
2022-08-22T00:50:34.533Z,99100.59
2022-08-22T00:53:46.220Z,99100.06
2022-08-22T00:56:59.325Z,99098.19
2022-08-22T01:00:03.706Z,99103.56
2022-08-22T01:03:18.848Z,99111.69
2022-08-22T01:06:46.046Z,99103.41
2022-08-22T01:10:22.334Z,99099.78
2022-08-22T01:13:31.200Z,99092.13
2022-08-22T01:17:02.466Z,99090.31
2022-08-22T01:20:17.418Z,99078.66
2022-08-22T01:23:27.619Z,99082.97
2022-08-22T01:26:48.886Z,99087.47
2022-08-22T01:30:27.530Z,99081.38
2022-08-22T01:33:58.286Z,99081.31
2022-08-22T01:37:26.578Z,99074.53
2022-08-22T01:40:54.479Z,99075.19
2022-08-22T01:44:18.091Z,99080.66
2022-08-22T01:47:29.145Z,99083.62
2022-08-22T01:50:59.243Z,99081.66
2022-08-22T01:54:21.276Z,99075.69
2022-08-22T01:57:25.437Z,99082.09
2022-08-22T02:00:35.141Z,99081.78
2022-08-22T02:04:01.881Z,99086.25
2022-08-22T02:07:20.559Z,99082.88
2022-08-22T02:11:12.132Z,99082.03
2022-08-22T02:14:34.125Z,99081.53
2022-08-22T02:17:56.499Z,99070.41
2022-08-22T02:21:11.833Z,99072.63
2022-08-22T02:24:19.631Z,99074.91
2022-08-22T02:27:35.864Z,99072.63
2022-08-22T02:30:51.030Z,99073.31
2022-08-22T02:33:57.783Z,99070.56
2022-08-22T02:37:34.859Z,99064.91
2022-08-22T02:40:39.762Z,99062.34
2022-08-22T02:44:04.177Z,99057.53
2022-08-22T02:47:12.296Z,99061.16
2022-08-22T02:50:39.062Z,99060.62
2022-08-22T02:54:12.845Z,99061.53
2022-08-22T02:57:39.672Z,99056.37
2022-08-22T03:00:50.047Z,99049.91
2022-08-22T03:04:33.886Z,99060.19
2022-08-22T03:07:41.519Z,99055.22
2022-08-22T03:10:49.366Z,99049.44
2022-08-22T03:14:13.935Z,99055.34
2022-08-22T03:17:26.050Z,99058.53
2022-08-22T03:21:16.496Z,99056.44
2022-08-22T03:24:37.844Z,99060.16
2022-08-22T03:27:45.376Z,99070.38
2022-08-22T03:30:51.218Z,99063.28
2022-08-22T03:34:21.575Z,99067.66
2022-08-22T03:37:45.464Z,99067.53
2022-08-22T03:41:20.615Z,99069.41
2022-08-22T03:44:38.681Z,99064.25
2022-08-22T03:47:59.610Z,99076.09
2022-08-22T03:51:40.969Z,99071.69
2022-08-22T03:55:03.637Z,99073.88
2022-08-22T03:58:28.078Z,99064.91
2022-08-22T04:01:40.196Z,99070.28
2022-08-22T04:05:07.825Z,99064.91
2022-08-22T04:08:26.431Z,99073.97
2022-08-22T04:12:04.104Z,99076.94
2022-08-22T04:15:36.036Z,99071.03
2022-08-22T04:18:45.183Z,99071.25
2022-08-22T04:22:07.631Z,99076.09
2022-08-22T04:25:27.379Z,99082.41
2022-08-22T04:28:52.223Z,99082.28
2022-08-22T04:32:12.707Z,99084.19
2022-08-22T04:35:35.444Z,99086.75
2022-08-22T04:38:59.004Z,99088.28
2022-08-22T04:42:29.147Z,99087.50
2022-08-22T04:45:37.030Z,99102.06
2022-08-22T04:48:53.147Z,99107.47
2022-08-22T04:52:08.616Z,99105.16
2022-08-22T04:55:21.855Z,99103.38
2022-08-22T04:58:31.787Z,99106.59
2022-08-22T05:01:55.059Z,99113.66
2022-08-22T05:05:04.288Z,99112.00
2022-08-22T05:08:12.605Z,99109.63
2022-08-22T05:11:20.633Z,99100.84
2022-08-22T05:14:28.835Z,99107.25
2022-08-22T05:17:32.548Z,99115.47
2022-08-22T05:20:37.587Z,99113.38
2022-08-22T05:23:46.253Z,99123.72
2022-08-22T05:26:52.777Z,99123.94
2022-08-22T05:30:09.630Z,99121.97
2022-08-22T05:33:44.505Z,99119.09
2022-08-22T05:36:52.969Z,99127.19
2022-08-22T05:40:00.649Z,99128.34
2022-08-22T05:43:04.625Z,99134.81
2022-08-22T05:46:13.181Z,99139.22
2022-08-22T05:49:21.095Z,99139.97
2022-08-22T05:52:57.846Z,99136.12
2022-08-22T05:56:12.166Z,99136.59
2022-08-22T05:59:25.485Z,99140.84
2022-08-22T06:02:54.750Z,99145.06
2022-08-22T06:06:00.249Z,99151.94
2022-08-22T06:09:12.716Z,99144.81
2022-08-22T06:12:22.199Z,99158.66
2022-08-22T06:15:34.281Z,99156.25
2022-08-22T06:18:42.110Z,99164.59
2022-08-22T06:21:48.796Z,99157.13
2022-08-22T06:24:53.469Z,99163.41
2022-08-22T06:27:57.883Z,99164.41
2022-08-22T06:31:00.884Z,99167.03
2022-08-22T06:34:19.909Z,99169.94
2022-08-22T06:37:31.849Z,99165.41
2022-08-22T06:40:34.976Z,99170.00
2022-08-22T06:43:43.083Z,99163.94
2022-08-22T06:46:47.015Z,99166.03
2022-08-22T06:49:57.553Z,99176.56
2022-08-22T06:53:06.476Z,99174.09
2022-08-22T07:11:36.768Z,99182.88
2022-08-22T07:15:34.485Z,99194.94
2022-08-22T07:27:29.366Z,99202.22
2022-08-22T07:30:49.039Z,99198.00
2022-08-22T07:33:55.621Z,99198.34
2022-08-22T07:37:08.773Z,99198.44
2022-08-22T07:40:40.213Z,99191.06
2022-08-22T07:43:46.436Z,99204.00
2022-08-22T07:47:01.709Z,99202.06
2022-08-22T07:50:08.157Z,99198.88
2022-08-22T07:53:21.542Z,99197.97
2022-08-22T07:56:28.943Z,99206.16
2022-08-22T07:59:34.577Z,99204.53
2022-08-22T08:02:37.839Z,99203.19
2022-08-22T08:05:44.345Z,99202.13
2022-08-22T08:08:47.654Z,99214.69
2022-08-22T08:11:52.752Z,99211.88
2022-08-22T08:14:55.883Z,99206.72
2022-08-22T08:18:02.299Z,99214.31
2022-08-22T08:21:10.971Z,99212.50
2022-08-22T08:24:16.621Z,99207.72
2022-08-22T08:27:43.063Z,99207.22
2022-08-22T08:31:00.107Z,99208.37
2022-08-22T08:34:11.225Z,99217.56
2022-08-22T08:37:27.484Z,99220.16
2022-08-22T08:40:33.175Z,99219.94
2022-08-22T08:44:07.357Z,99217.47
2022-08-22T08:47:41.271Z,99214.41
2022-08-22T08:50:50.413Z,99218.41
2022-08-22T08:54:24.148Z,99213.94
2022-08-22T08:57:54.156Z,99220.91
2022-08-22T09:01:11.377Z,99226.91
2022-08-22T09:04:29.879Z,99218.63
2022-08-22T09:07:44.681Z,99214.94
2022-08-22T09:10:53.653Z,99223.91
2022-08-22T09:14:31.501Z,99222.19
2022-08-22T09:17:59.189Z,99230.31
2022-08-22T09:21:12.754Z,99222.97
2022-08-22T09:25:01.747Z,99222.53
2022-08-22T09:28:32.472Z,99218.25
2022-08-22T09:31:48.357Z,99226.72
2022-08-22T09:35:22.367Z,99213.78
2022-08-22T09:38:31.024Z,99214.31
2022-08-22T09:41:46.139Z,99209.28
2022-08-22T09:44:55.045Z,99214.13
2022-08-22T09:48:07.029Z,99209.19
2022-08-22T09:51:32.112Z,99213.19
2022-08-22T09:54:46.460Z,99208.84
2022-08-22T09:58:18.540Z,99205.97
2022-08-22T10:01:44.370Z,99201.72
2022-08-22T10:04:58.193Z,99195.56
2022-08-22T10:08:26.289Z,99200.28
2022-08-22T10:12:02.380Z,99209.53
2022-08-22T10:15:24.809Z,99206.78
2022-08-22T10:19:16.314Z,99208.56
2022-08-22T10:23:11.869Z,99200.59
2022-08-22T10:26:51.042Z,99204.94
2022-08-22T10:30:45.767Z,99205.28
2022-08-22T10:34:18.455Z,99209.63
2022-08-22T11:28:57.603Z,99182.66
2022-08-22T11:32:32.257Z,99188.09
2022-08-22T11:35:52.330Z,99186.03
2022-08-22T11:38:58.368Z,99183.59
2022-08-22T11:42:08.791Z,99192.56
2022-08-22T11:45:18.956Z,99190.50
2022-08-22T11:48:48.559Z,99182.03
2022-08-22T11:52:18.332Z,99181.91
2022-08-22T11:56:05.590Z,99183.81
2022-08-22T11:59:20.519Z,99173.13
2022-08-22T12:03:00.557Z,99165.19
2022-08-22T12:06:30.187Z,99167.97
2022-08-22T12:09:58.181Z,99168.53
2022-08-22T12:13:38.980Z,99167.41
2022-08-22T12:25:48.717Z,99166.97
2022-08-22T12:29:05.623Z,99169.84
2022-08-22T12:32:53.166Z,99162.91
2022-08-22T12:36:20.456Z,99166.97
2022-08-22T12:39:35.668Z,99156.75
2022-08-22T12:43:18.863Z,99146.16
2022-08-22T12:46:36.481Z,99151.41
2022-08-22T12:50:20.643Z,99156.19
2022-08-22T12:53:56.736Z,99160.78
2022-08-22T12:57:24.000Z,99166.41
2022-08-22T13:00:34.675Z,99169.44
2022-08-22T13:03:46.706Z,99158.38
2022-08-22T13:06:53.896Z,99163.37
2022-08-22T13:10:06.090Z,99158.03
2022-08-22T13:13:36.998Z,99161.94
2022-08-22T13:21:22.244Z,99144.41
2022-08-22T13:24:38.817Z,99145.47
2022-08-22T13:32:20.230Z,99137.41
2022-08-22T13:35:35.338Z,99147.31
2022-08-22T13:42:48.000Z,99148.97
2022-08-22T13:46:04.150Z,99143.62
2022-08-22T13:49:10.326Z,99169.97
2022-08-22T13:52:29.739Z,99180.84
2022-08-22T13:55:49.761Z,99172.28
2022-08-22T13:58:59.064Z,99160.44
2022-08-22T14:02:38.869Z,99161.66
2022-08-22T14:06:07.265Z,99162.25
2022-08-22T14:10:02.564Z,99154.59
2022-08-22T14:13:25.124Z,99154.37
2022-08-22T14:16:45.562Z,99164.91
2022-08-22T14:20:04.198Z,99188.97
2022-08-22T14:23:29.369Z,99205.81
2022-08-22T14:26:47.406Z,99221.47
2022-08-22T14:29:54.351Z,99193.28
2022-08-22T14:33:25.104Z,99172.94
2022-08-22T14:36:49.719Z,99157.91
2022-08-22T14:40:02.144Z,99165.59
2022-08-22T14:47:54.924Z,99180.09
2022-08-22T14:51:31.526Z,99179.91
2022-08-22T14:55:10.365Z,99184.91
2022-08-22T14:58:26.551Z,99187.69
2022-08-22T15:01:37.304Z,99198.13
2022-08-22T15:08:48.159Z,99203.69
2022-08-22T15:12:24.132Z,99199.91
2022-08-22T15:15:49.683Z,99192.97
2022-08-22T15:19:00.242Z,99197.69
2022-08-22T15:22:25.632Z,99193.97
2022-08-22T15:25:34.624Z,99202.81
2022-08-22T15:28:52.294Z,99210.16
2022-08-22T15:32:01.112Z,99216.31
2022-08-22T15:35:08.461Z,99212.22
2022-08-22T15:38:27.814Z,99212.75
2022-08-22T15:45:33.845Z,99217.19
2022-08-22T15:48:39.140Z,99226.44
2022-08-22T16:00:43.477Z,99237.41
2022-08-22T16:03:59.282Z,99234.56
2022-08-22T16:07:05.360Z,99222.47
2022-08-22T16:10:14.374Z,99238.06
2022-08-22T16:13:27.047Z,99244.75
2022-08-22T16:16:46.859Z,99251.91
2022-08-22T16:20:15.805Z,99257.97
2022-08-22T16:23:24.640Z,99265.38
2022-08-22T16:26:31.437Z,99263.25
2022-08-22T16:29:41.419Z,99264.66
2022-08-22T16:32:51.813Z,99252.59
2022-08-22T16:36:20.097Z,99241.69
2022-08-22T16:39:24.047Z,99239.16
2022-08-22T16:42:52.529Z,99244.47
2022-08-22T16:45:55.713Z,99248.53
2022-08-22T16:49:01.163Z,99231.84
2022-08-22T16:52:26.077Z,99233.59
2022-08-22T16:55:29.125Z,99234.81
2022-08-22T16:59:06.087Z,99239.31
2022-08-22T17:02:33.323Z,99254.03
2022-08-22T17:05:40.626Z,99265.91
2022-08-22T17:09:22.394Z,99274.38
2022-08-22T17:12:34.727Z,99257.13
2022-08-22T17:16:14.160Z,99259.84
2022-08-22T17:19:43.364Z,99266.91
2022-08-22T17:22:54.132Z,99273.00
2022-08-22T17:26:34.365Z,99273.91
2022-08-22T17:29:40.491Z,99274.03
2022-08-22T17:32:46.199Z,99279.53
2022-08-22T17:36:03.326Z,99287.88
2022-08-22T17:39:19.790Z,99291.63
2022-08-22T17:42:42.524Z,99297.63
2022-08-22T17:45:59.984Z,99302.91
2022-08-22T17:49:26.039Z,99303.19
2022-08-22T17:52:31.690Z,99306.56
2022-08-22T17:55:55.339Z,99309.59
2022-08-22T17:59:27.509Z,99308.34
2022-08-22T18:02:40.326Z,99300.06
2022-08-22T18:05:52.582Z,99303.69
2022-08-22T18:09:15.417Z,99302.72
2022-08-22T18:13:03.477Z,99309.41
2022-08-22T18:16:19.191Z,99294.03
2022-08-22T18:19:38.629Z,99304.62
2022-08-22T18:22:43.319Z,99294.44
2022-08-22T18:26:01.631Z,99299.84
2022-08-22T18:29:31.783Z,99297.09
2022-08-22T18:32:41.598Z,99314.41
2022-08-22T18:35:53.698Z,99312.12
2022-08-22T18:39:15.213Z,99314.28
2022-08-22T18:42:33.868Z,99317.19
2022-08-22T18:45:46.537Z,99320.34
2022-08-22T18:49:12.099Z,99325.50
2022-08-22T18:52:18.423Z,99327.63
2022-08-22T18:55:43.849Z,99340.06
2022-08-22T18:59:05.474Z,99347.03
2022-08-22T19:02:28.315Z,99346.81
2022-08-22T19:05:54.511Z,99351.03
2022-08-22T19:09:27.357Z,99342.03
2022-08-22T19:13:18.614Z,99342.66
2022-08-22T19:16:32.648Z,99339.81
2022-08-22T19:20:14.539Z,99346.75
2022-08-22T19:23:32.969Z,99340.56
2022-08-22T19:26:42.105Z,99335.63
2022-08-22T19:29:45.209Z,99339.84
2022-08-22T19:32:49.850Z,99333.38
2022-08-22T19:35:53.204Z,99336.38
2022-08-22T19:39:09.200Z,99330.22
2022-08-22T19:42:18.743Z,99334.59
2022-08-22T19:45:29.047Z,99337.75
2022-08-22T19:48:50.665Z,99345.78
2022-08-22T19:52:17.037Z,99344.03
2022-08-22T19:55:39.245Z,99342.97
2022-08-22T19:59:02.226Z,99344.31
2022-08-22T20:02:23.993Z,99348.31
2022-08-22T20:05:47.381Z,99344.03
2022-08-22T20:09:02.998Z,99344.91
2022-08-22T20:12:27.701Z,99347.81
2022-08-22T20:15:55.866Z,99341.56
2022-08-22T20:19:09.476Z,99351.69
2022-08-22T20:22:24.854Z,99346.53
2022-08-22T20:25:42.774Z,99342.84
2022-08-22T20:28:49.980Z,99337.66
2022-08-22T20:31:58.494Z,99333.38
2022-08-22T20:35:04.239Z,99323.78
2022-08-22T20:38:15.522Z,99318.84
2022-08-22T20:41:23.637Z,99327.06
2022-08-22T20:44:36.820Z,99321.84
2022-08-22T20:47:49.411Z,99326.72
2022-08-22T20:51:03.241Z,99319.16
2022-08-22T20:54:19.239Z,99312.44
2022-08-22T20:57:22.991Z,99320.63
2022-08-22T21:00:30.482Z,99313.25
2022-08-22T21:03:45.483Z,99315.31
2022-08-22T21:06:59.726Z,99319.97
2022-08-22T21:10:25.784Z,99316.00
2022-08-22T21:13:38.602Z,99311.91
2022-08-22T21:16:41.777Z,99318.59
2022-08-22T21:19:46.886Z,99325.53
2022-08-22T21:22:51.045Z,99317.91
2022-08-22T21:25:58.534Z,99309.50
2022-08-22T21:29:10.602Z,99317.31
2022-08-22T21:32:13.510Z,99321.06
2022-08-22T21:35:28.929Z,99320.22
2022-08-22T21:38:32.649Z,99311.84
2022-08-22T21:41:40.653Z,99306.41
2022-08-22T21:44:56.039Z,99303.78
2022-08-22T21:47:59.700Z,99310.19
2022-08-22T21:51:29.992Z,99308.41
2022-08-22T21:54:40.051Z,99308.13
2022-08-22T21:57:43.692Z,99309.66
2022-08-22T22:00:54.972Z,99311.03
2022-08-22T22:04:01.053Z,99320.28
2022-08-22T22:07:06.729Z,99317.19
2022-08-22T22:10:12.753Z,99321.03
2022-08-22T22:13:16.788Z,99330.72
2022-08-22T22:16:24.440Z,99333.22
2022-08-22T22:19:27.245Z,99334.94
2022-08-22T22:22:31.153Z,99340.22
2022-08-22T22:25:39.563Z,99345.16
2022-08-22T22:28:48.279Z,99354.13
2022-08-22T22:31:51.287Z,99348.72
2022-08-22T22:34:54.391Z,99358.31
2022-08-22T22:37:57.206Z,99352.81
2022-08-22T22:41:00.425Z,99347.28
2022-08-22T22:44:04.329Z,99344.78
2022-08-22T22:47:07.676Z,99347.34
2022-08-22T22:50:10.758Z,99358.09
2022-08-22T22:53:19.905Z,99353.44
2022-08-22T22:56:26.352Z,99358.50
2022-08-22T22:59:30.039Z,99355.66
2022-08-22T23:02:35.709Z,99349.59
2022-08-22T23:05:38.856Z,99355.94
2022-08-22T23:08:42.536Z,99360.63
2022-08-22T23:11:46.239Z,99355.25
2022-08-22T23:14:49.002Z,99356.72
2022-08-22T23:17:52.372Z,99359.63
2022-08-22T23:20:55.109Z,99362.19
2022-08-22T23:23:59.415Z,99352.00
2022-08-22T23:27:02.994Z,99350.88
2022-08-22T23:30:08.749Z,99352.44
2022-08-22T23:33:11.591Z,99362.19
2022-08-22T23:36:18.119Z,99354.88
2022-08-22T23:39:22.305Z,99346.03
2022-08-22T23:42:25.523Z,99350.59
2022-08-22T23:45:28.319Z,99343.31
2022-08-22T23:48:31.533Z,99350.25
2022-08-22T23:51:35.531Z,99356.00
2022-08-22T23:54:39.997Z,99349.31
2022-08-22T23:57:42.797Z,99355.50
